Tribay — HO2420 — position and weather

sailwx.info

Track history (hours):
 
Tides and Currents Weather Stations Pressure Air Temp Water Temp Dewpoint Dewpoint Depression Visibility Wind Speed Wind Dir Waves Ship Positions

Tribay

Last reported at 2013-Aug-30 02:32 UTC. Time now 2014-Oct-21 20:10 UTC.
Position N 36°58' E 024°23'.
Warning: this ship's position is years out of date!

Length 94 m; draft 3.8 m.

Type: Cargo ship. MMSI: 372502000.

Date/timePositionNaut miles runAvg speedWind from/ knotsBaromVisibWave heightAir tempDewpointWater temp
2013-Aug-30 02:32N 36°58' E 024°23'6 6.3
2013-Aug-30 01:33N 36°54' E 024°17'7 6.6
2013-Aug-30 00:31N 36°50' E 024°10'11 5.6
2013-Aug-29 22:33N 36°43' E 023°60'6 6.3
2013-Aug-29 21:32N 36°39' E 023°54'6 6.5
2013-Aug-29 20:33N 36°34' E 023°48'7 7.0
2013-Aug-29 19:33N 36°30' E 023°41'7 7.0
2013-Aug-29 18:33N 36°25' E 023°35'179 5.8
2013-Aug-28 11:33N 36°12' E 019°54'11 8.5
2013-Aug-28 10:14N 36°13' E 019°40'6 8.5
2013-Aug-28 09:34N 36°13' E 019°33'9 8.4
2013-Aug-28 08:26N 36°13' E 019°21'7 8.4
2013-Aug-28 07:34N 36°14' E 019°12'152 9.4
2013-Aug-27 15:19N 36°21' E 016°03'16 9.2
2013-Aug-27 13:34N 36°22' E 015°43'20 9.2
2013-Aug-27 11:25N 36°24' E 015°19'8 9.4
2013-Aug-27 10:33N 36°24' E 015°09'8 7.6
2013-Aug-27 09:33N 36°24' E 014°59'9 9.1
2013-Aug-27 08:32N 36°24' E 014°48'18 9.3
2013-Aug-27 06:32N 36°25' E 014°25'11 9.7
2013-Aug-27 05:27N 36°26' E 014°12'18 9.5
2013-Aug-27 03:33N 36°27' E 013°49'9 8.9
2013-Aug-27 02:33N 36°29' E 013°38'9 8.6
2013-Aug-27 01:33N 36°30' E 013°28'9 8.6
2013-Aug-27 00:33N 36°31' E 013°17'40 9.0
2013-Aug-26 20:04N 36°46' E 012°31'510.3
2013-Aug-26 19:33N 36°49' E 012°25'1110.5
2013-Aug-26 18:33N 36°54' E 012°14'10 9.6
2013-Aug-26 17:33N 36°59' E 012°03'10 9.4
2013-Aug-26 16:28N 37°04' E 011°52'427 9.1
2013-Aug-24 17:17N 37°10' E 002°56'6 8.6
2013-Aug-24 16:32N 37°09' E 002°49'9 9.2
2013-Aug-24 15:32N 37°07' E 002°37'10 9.4
2013-Aug-24 14:29N 37°05' E 002°25'28 9.5
2013-Aug-24 11:31N 36°60' E 001°51'10 9.5
2013-Aug-24 10:30N 36°58' E 001°39'38 9.6
2013-Aug-24 06:30N 36°51' E 000°51'9 9.0
2013-Aug-24 05:31N 36°49' E 000°41'28 8.7
2013-Aug-24 02:18N 36°43' E 000°06'9 8.4
2013-Aug-24 01:14N 36°42' W 000°05'27 8.7
2013-Aug-23 22:08N 36°37' W 000°38'5 8.6
2013-Aug-23 21:33N 36°36' W 000°44'9 8.6
2013-Aug-23 20:32N 36°34' W 000°55'9 8.8
2013-Aug-23 19:33N 36°32' W 001°05'9 8.8
2013-Aug-23 18:31N 36°31' W 001°16'9 9.1
2013-Aug-23 17:33N 36°29' W 001°27'1010.0
2013-Aug-23 16:34N 36°27' W 001°39'10 9.9
2013-Aug-23 15:33N 36°25' W 001°51'31 9.9
2013-Aug-23 12:25N 36°20' W 002°29'20110.0
2013-Aug-22 16:18N 35°28' W 006°30'5 7.1
2013-Aug-22 15:33N 35°25' W 006°34'12 9.6
2013-Aug-22 14:16N 35°16' W 006°45'7 9.8
2013-Aug-22 13:32N 35°11' W 006°52'452 9.0
2013-Aug-20 11:09N 29°56' W 013°16'  
Track history (hours):
 
Tides and Currents Weather Stations Pressure Air Temp Water Temp Dewpoint Dewpoint Depression Visibility Wind Speed Wind Dir Waves Ship Positions

Tribay

Last reported at 2013-Aug-30 02:32 UTC. Time now 2014-Oct-21 20:10 UTC.
Position N 36°58' E 024°23'.
Warning: this ship's position is years out of date!

Length 94 m; draft 3.8 m.

Type: Cargo ship. MMSI: 372502000.

Date/timePositionNaut miles runAvg speedWind from/ knotsBaromVisibWave heightAir tempDewpointWater temp
2013-Aug-30 02:32N 36°58' E 024°23'6 6.3
2013-Aug-30 01:33N 36°54' E 024°17'7 6.6
2013-Aug-30 00:31N 36°50' E 024°10'11 5.6
2013-Aug-29 22:33N 36°43' E 023°60'6 6.3
2013-Aug-29 21:32N 36°39' E 023°54'6 6.5
2013-Aug-29 20:33N 36°34' E 023°48'7 7.0
2013-Aug-29 19:33N 36°30' E 023°41'7 7.0
2013-Aug-29 18:33N 36°25' E 023°35'179 5.8
2013-Aug-28 11:33N 36°12' E 019°54'11 8.5
2013-Aug-28 10:14N 36°13' E 019°40'6 8.5
2013-Aug-28 09:34N 36°13' E 019°33'9 8.4
2013-Aug-28 08:26N 36°13' E 019°21'7 8.4
2013-Aug-28 07:34N 36°14' E 019°12'152 9.4
2013-Aug-27 15:19N 36°21' E 016°03'16 9.2
2013-Aug-27 13:34N 36°22' E 015°43'20 9.2
2013-Aug-27 11:25N 36°24' E 015°19'8 9.4
2013-Aug-27 10:33N 36°24' E 015°09'8 7.6
2013-Aug-27 09:33N 36°24' E 014°59'9 9.1
2013-Aug-27 08:32N 36°24' E 014°48'18 9.3
2013-Aug-27 06:32N 36°25' E 014°25'11 9.7
2013-Aug-27 05:27N 36°26' E 014°12'18 9.5
2013-Aug-27 03:33N 36°27' E 013°49'9 8.9
2013-Aug-27 02:33N 36°29' E 013°38'9 8.6
2013-Aug-27 01:33N 36°30' E 013°28'9 8.6
2013-Aug-27 00:33N 36°31' E 013°17'40 9.0
2013-Aug-26 20:04N 36°46' E 012°31'510.3
2013-Aug-26 19:33N 36°49' E 012°25'1110.5
2013-Aug-26 18:33N 36°54' E 012°14'10 9.6
2013-Aug-26 17:33N 36°59' E 012°03'10 9.4
2013-Aug-26 16:28N 37°04' E 011°52'427 9.1
2013-Aug-24 17:17N 37°10' E 002°56'6 8.6
2013-Aug-24 16:32N 37°09' E 002°49'9 9.2
2013-Aug-24 15:32N 37°07' E 002°37'10 9.4
2013-Aug-24 14:29N 37°05' E 002°25'28 9.5
2013-Aug-24 11:31N 36°60' E 001°51'10 9.5
2013-Aug-24 10:30N 36°58' E 001°39'38 9.6
2013-Aug-24 06:30N 36°51' E 000°51'9 9.0
2013-Aug-24 05:31N 36°49' E 000°41'28 8.7
2013-Aug-24 02:18N 36°43' E 000°06'9 8.4
2013-Aug-24 01:14N 36°42' W 000°05'27 8.7
2013-Aug-23 22:08N 36°37' W 000°38'5 8.6
2013-Aug-23 21:33N 36°36' W 000°44'9 8.6
2013-Aug-23 20:32N 36°34' W 000°55'9 8.8
2013-Aug-23 19:33N 36°32' W 001°05'9 8.8
2013-Aug-23 18:31N 36°31' W 001°16'9 9.1
2013-Aug-23 17:33N 36°29' W 001°27'1010.0
2013-Aug-23 16:34N 36°27' W 001°39'10 9.9
2013-Aug-23 15:33N 36°25' W 001°51'31 9.9
2013-Aug-23 12:25N 36°20' W 002°29'20110.0
2013-Aug-22 16:18N 35°28' W 006°30'5 7.1
2013-Aug-22 15:33N 35°25' W 006°34'12 9.6
2013-Aug-22 14:16N 35°16' W 006°45'7 9.8
2013-Aug-22 13:32N 35°11' W 006°52'452 9.0
2013-Aug-20 11:09N 29°56' W 013°16'  

Dump ship's entire track history